createdAt,value
2023-03-29T00:00:39.185Z,1.40
2023-03-29T00:03:06.940Z,1.20
2023-03-29T00:05:35.197Z,1.33
2023-03-29T00:08:04.395Z,2.20
2023-03-29T00:10:34.588Z,1.50
2023-03-29T00:13:03.121Z,1.40
2023-03-29T00:15:30.814Z,0.90
2023-03-29T00:17:58.422Z,1.20
2023-03-29T00:20:26.091Z,1.40
2023-03-29T00:22:53.591Z,1.23
2023-03-29T00:25:21.404Z,1.10
2023-03-29T00:27:49.027Z,1.50
2023-03-29T00:30:17.538Z,1.30
2023-03-29T00:32:46.103Z,1.60
2023-03-29T00:35:13.655Z,1.43
2023-03-29T00:37:41.417Z,1.30
2023-03-29T00:40:11.744Z,1.10
2023-03-29T00:42:39.256Z,1.33
2023-03-29T00:45:25.228Z,1.40
2023-03-29T00:48:02.264Z,1.60
2023-03-29T00:50:31.508Z,1.53
2023-03-29T00:53:06.828Z,1.60
2023-03-29T00:56:01.709Z,1.30
2023-03-29T00:58:41.904Z,1.40
2023-03-29T01:01:19.648Z,1.53
2023-03-29T01:03:58.415Z,1.60
2023-03-29T01:06:29.656Z,1.30
2023-03-29T01:09:01.703Z,1.60
2023-03-29T01:11:36.389Z,1.63
2023-03-29T01:14:19.465Z,1.73
2023-03-29T01:16:47.777Z,1.47
2023-03-29T01:19:21.524Z,1.40
2023-03-29T01:22:03.720Z,1.40
2023-03-29T01:24:55.719Z,1.30
2023-03-29T01:28:04.111Z,1.57
2023-03-29T01:30:44.099Z,1.60
2023-03-29T01:33:23.596Z,1.97
2023-03-29T01:36:16.573Z,1.90
2023-03-29T01:38:54.505Z,1.70
2023-03-29T01:41:23.633Z,1.63
2023-03-29T01:43:57.246Z,1.70
2023-03-29T01:46:41.888Z,1.50
2023-03-29T01:49:27.518Z,1.50
2023-03-29T01:52:27.745Z,1.70
2023-03-29T01:55:08.214Z,1.87
2023-03-29T01:57:40.078Z,1.67
2023-03-29T02:00:11.452Z,1.57
2023-03-29T02:02:44.025Z,2.10
2023-03-29T02:05:17.740Z,1.80
2023-03-29T02:07:47.571Z,1.80
2023-03-29T02:10:16.833Z,1.80
2023-03-29T02:12:44.384Z,2.20
2023-03-29T02:15:18.859Z,2.10
2023-03-29T02:17:48.156Z,2.00
2023-03-29T02:20:24.191Z,1.90
2023-03-29T02:23:18.685Z,1.90
2023-03-29T02:25:47.252Z,1.83
2023-03-29T02:28:15.387Z,2.10
2023-03-29T02:30:59.791Z,1.83
2023-03-29T02:33:35.011Z,2.00
2023-03-29T02:36:18.502Z,1.90
2023-03-29T02:38:46.411Z,2.03
2023-03-29T02:41:16.566Z,1.87
2023-03-29T02:43:46.874Z,1.93
2023-03-29T02:46:16.567Z,2.00
2023-03-29T02:48:47.164Z,1.83
2023-03-29T02:51:24.357Z,1.77
2023-03-29T02:54:05.003Z,2.40
2023-03-29T02:56:56.825Z,1.97
2023-03-29T02:59:24.442Z,2.00
2023-03-29T03:01:52.953Z,2.20
2023-03-29T03:04:21.090Z,2.20
2023-03-29T03:06:51.286Z,2.27
2023-03-29T03:09:19.773Z,2.33
2023-03-29T03:11:48.287Z,2.30
2023-03-29T03:14:16.761Z,2.60
2023-03-29T03:16:44.624Z,2.33
2023-03-29T03:19:12.273Z,3.00
2023-03-29T03:21:39.797Z,2.77
2023-03-29T03:24:07.755Z,2.87
2023-03-29T03:26:36.073Z,2.60
2023-03-29T03:29:06.208Z,2.47
2023-03-29T03:31:56.971Z,2.30
2023-03-29T03:34:43.639Z,2.47
2023-03-29T03:37:15.492Z,2.43
2023-03-29T03:39:43.506Z,2.37
2023-03-29T03:42:11.284Z,3.23
2023-03-29T03:44:44.634Z,2.57
2023-03-29T03:47:28.272Z,2.17
2023-03-29T03:49:58.552Z,2.17
2023-03-29T03:52:27.671Z,2.00
2023-03-29T03:54:55.170Z,2.20
2023-03-29T03:57:47.973Z,2.80
2023-03-29T04:00:19.430Z,2.43
2023-03-29T04:02:56.901Z,2.07
2023-03-29T04:05:25.460Z,3.00
2023-03-29T04:07:56.614Z,2.87
2023-03-29T04:10:43.853Z,2.80
2023-03-29T04:13:15.873Z,2.87
2023-03-29T04:16:15.667Z,2.90
2023-03-29T04:18:44.056Z,2.40
2023-03-29T04:21:11.802Z,2.60
2023-03-29T04:23:39.273Z,2.60
2023-03-29T04:26:07.771Z,2.40
2023-03-29T04:28:57.756Z,2.90
2023-03-29T04:31:37.408Z,2.50
2023-03-29T04:34:31.329Z,2.30
2023-03-29T04:36:58.928Z,2.33
2023-03-29T04:39:33.828Z,2.50
2023-03-29T04:42:05.266Z,2.93
2023-03-29T04:44:34.192Z,2.73
2023-03-29T04:47:04.854Z,2.70
2023-03-29T04:49:52.572Z,3.53
2023-03-29T04:52:42.022Z,3.47
2023-03-29T04:55:10.687Z,3.00
2023-03-29T04:57:53.478Z,3.10
2023-03-29T05:00:27.680Z,3.37
2023-03-29T05:03:14.705Z,2.93
2023-03-29T05:06:06.946Z,3.90
2023-03-29T05:08:40.322Z,2.97
2023-03-29T05:11:19.859Z,2.97
2023-03-29T05:13:47.966Z,2.60
2023-03-29T05:16:16.012Z,2.90
2023-03-29T05:18:44.598Z,2.53
2023-03-29T05:21:12.071Z,2.60
2023-03-29T05:23:43.064Z,2.13
2023-03-29T05:26:30.985Z,2.73
2023-03-29T05:28:58.623Z,2.33
2023-03-29T05:31:26.705Z,2.60
2023-03-29T05:33:55.653Z,2.80
2023-03-29T05:36:23.455Z,3.13
2023-03-29T05:38:51.959Z,5.27
2023-03-29T05:41:22.788Z,5.40
2023-03-29T05:43:50.637Z,6.30
2023-03-29T05:46:18.983Z,5.43
2023-03-29T05:48:52.168Z,5.03
2023-03-29T05:51:24.437Z,6.27
2023-03-29T05:53:54.404Z,5.83
2023-03-29T05:56:22.562Z,5.03
2023-03-29T05:58:51.410Z,4.13
2023-03-29T06:01:20.562Z,3.97
2023-03-29T06:04:03.551Z,3.30
2023-03-29T06:06:39.515Z,2.83
2023-03-29T06:09:07.458Z,3.40
2023-03-29T06:11:37.805Z,2.63
2023-03-29T06:14:24.942Z,2.83
2023-03-29T06:17:02.802Z,3.30
2023-03-29T06:19:31.940Z,2.00
2023-03-29T06:22:02.200Z,2.50
2023-03-29T06:24:36.540Z,2.60
2023-03-29T06:27:11.245Z,2.47
2023-03-29T06:29:38.707Z,2.90
2023-03-29T06:32:09.288Z,2.40
2023-03-29T06:34:48.257Z,2.40
2023-03-29T06:37:40.342Z,2.23
2023-03-29T06:40:34.427Z,2.47
2023-03-29T06:43:01.889Z,2.13
2023-03-29T06:48:07.993Z,1.60
2023-03-29T06:50:37.034Z,1.67
2023-03-29T06:53:26.335Z,1.60
2023-03-29T06:55:59.820Z,1.60
2023-03-29T06:58:45.280Z,1.40
2023-03-29T07:01:37.503Z,2.00
2023-03-29T07:04:21.037Z,1.63
2023-03-29T07:07:20.517Z,1.93
2023-03-29T07:09:55.663Z,1.27
2023-03-29T07:13:00.763Z,1.40
2023-03-29T07:15:30.020Z,2.10
2023-03-29T07:18:10.332Z,1.60
2023-03-29T07:20:42.605Z,2.20
2023-03-29T07:23:10.637Z,1.70
2023-03-29T07:25:39.425Z,2.73
2023-03-29T07:28:07.539Z,1.70
2023-03-29T07:30:35.269Z,1.90
2023-03-29T07:33:14.581Z,1.80
2023-03-29T07:35:55.379Z,1.80
2023-03-29T07:38:23.114Z,1.50
2023-03-29T07:40:59.967Z,1.70
2023-03-29T07:43:48.122Z,1.57
2023-03-29T07:46:19.700Z,1.30
2023-03-29T07:48:47.605Z,1.57
2023-03-29T07:51:16.723Z,1.70
2023-03-29T07:54:00.285Z,1.37
2023-03-29T07:56:42.268Z,1.40
2023-03-29T07:59:23.382Z,1.20
2023-03-29T08:02:13.160Z,1.50
2023-03-29T08:04:44.942Z,1.40
2023-03-29T08:07:37.746Z,1.07
2023-03-29T08:10:26.753Z,1.50
2023-03-29T08:13:29.426Z,1.00
2023-03-29T08:16:15.554Z,1.50
2023-03-29T08:18:51.122Z,1.70
2023-03-29T08:21:20.507Z,1.40
2023-03-29T08:23:50.210Z,1.40
2023-03-29T08:26:25.956Z,1.80
2023-03-29T08:28:54.218Z,2.30
2023-03-29T08:31:24.137Z,1.80
2023-03-29T08:33:53.232Z,1.70
2023-03-29T08:36:40.254Z,1.00
2023-03-29T08:39:19.674Z,1.07
2023-03-29T08:42:38.755Z,2.33
2023-03-29T08:45:31.572Z,1.50
2023-03-29T08:48:28.642Z,2.10
2023-03-29T08:51:11.284Z,1.67
2023-03-29T08:53:46.069Z,2.67
2023-03-29T08:56:26.953Z,2.10
2023-03-29T08:58:57.091Z,2.67
2023-03-29T09:01:34.992Z,2.10
2023-03-29T09:04:18.948Z,2.20
2023-03-29T09:07:11.180Z,1.00
2023-03-29T09:09:43.996Z,0.90
2023-03-29T09:13:14.632Z,1.40
2023-03-29T09:16:08.549Z,0.90
2023-03-29T09:19:18.861Z,1.40
2023-03-29T09:21:51.694Z,1.30
2023-03-29T09:24:47.489Z,1.10
2023-03-29T09:27:28.065Z,1.10
2023-03-29T09:30:17.230Z,1.30
2023-03-29T09:33:29.917Z,1.47
2023-03-29T09:36:54.393Z,1.00
2023-03-29T09:39:23.442Z,1.47
2023-03-29T09:42:09.307Z,1.87
2023-03-29T09:44:54.577Z,1.17
2023-03-29T09:47:44.847Z,2.97
2023-03-29T09:50:30.848Z,1.53
2023-03-29T09:53:01.560Z,1.90
2023-03-29T09:55:36.494Z,1.77
2023-03-29T09:58:18.839Z,2.60
2023-03-29T10:00:58.067Z,2.53
2023-03-29T10:03:29.549Z,2.70
2023-03-29T10:06:08.625Z,1.93
2023-03-29T10:08:42.381Z,2.30
2023-03-29T10:11:31.952Z,2.97
2023-03-29T10:14:13.329Z,2.43
2023-03-29T10:16:46.348Z,1.23
2023-03-29T10:19:24.329Z,1.47
2023-03-29T10:21:54.023Z,4.17
2023-03-29T10:24:24.511Z,1.50
2023-03-29T10:26:59.240Z,1.60
2023-03-29T10:29:27.943Z,3.33
2023-03-29T10:31:58.415Z,1.93
2023-03-29T10:34:28.136Z,1.43
2023-03-29T10:37:01.181Z,3.70
2023-03-29T10:39:33.929Z,3.37
2023-03-29T10:42:05.534Z,1.40
2023-03-29T10:44:36.611Z,1.97
2023-03-29T10:47:17.620Z,1.17
2023-03-29T10:49:58.711Z,2.67
2023-03-29T10:52:26.651Z,2.30
2023-03-29T10:54:56.811Z,3.00
2023-03-29T10:57:49.775Z,2.00
2023-03-29T11:00:51.120Z,2.90
2023-03-29T11:03:56.307Z,1.10
2023-03-29T11:06:37.205Z,1.20
2023-03-29T11:09:28.309Z,2.00
2023-03-29T11:12:49.671Z,4.30
2023-03-29T11:15:36.498Z,1.70
2023-03-29T11:18:37.118Z,1.00
2023-03-29T11:21:19.381Z,1.23
2023-03-29T11:24:05.134Z,1.30
2023-03-29T11:27:45.664Z,1.10
2023-03-29T11:30:21.864Z,1.40
2023-03-29T11:33:22.325Z,1.37
2023-03-29T11:36:26.733Z,1.23
2023-03-29T11:39:04.219Z,1.60
2023-03-29T11:41:40.405Z,1.60
2023-03-29T11:44:30.450Z,3.30
2023-03-29T11:47:07.284Z,0.90
2023-03-29T11:50:00.101Z,1.17
2023-03-29T11:52:59.253Z,1.97
2023-03-29T11:55:36.037Z,1.43
2023-03-29T11:58:15.771Z,1.30
2023-03-29T12:04:01.688Z,3.20
2023-03-29T12:06:37.842Z,3.00
2023-03-29T12:09:39.687Z,1.77
2023-03-29T12:12:13.139Z,1.43
2023-03-29T12:15:00.786Z,1.67
2023-03-29T12:17:37.594Z,1.50
2023-03-29T12:20:18.777Z,1.40
2023-03-29T12:22:51.087Z,0.90
2023-03-29T12:25:30.426Z,2.10
2023-03-29T12:28:19.274Z,1.50
2023-03-29T12:30:58.375Z,1.00
2023-03-29T12:33:31.906Z,1.10
2023-03-29T12:37:11.597Z,2.10
2023-03-29T12:40:25.217Z,1.00
2023-03-29T12:43:32.202Z,2.03
2023-03-29T12:46:18.253Z,1.53
2023-03-29T12:48:51.493Z,1.00
2023-03-29T12:51:31.656Z,0.90
2023-03-29T12:54:29.143Z,1.10
2023-03-29T13:00:27.927Z,1.23
2023-03-29T13:03:44.921Z,1.23
2023-03-29T13:06:13.509Z,1.63
2023-03-29T13:08:45.670Z,1.00
2023-03-29T13:11:35.532Z,1.27
2023-03-29T13:14:13.217Z,1.20
2023-03-29T13:16:42.037Z,1.47
2023-03-29T13:19:12.402Z,1.60
2023-03-29T13:22:18.249Z,1.63
2023-03-29T13:25:21.725Z,2.63
2023-03-29T13:28:23.260Z,1.50
2023-03-29T13:30:59.708Z,1.10
2023-03-29T13:34:17.205Z,1.17
2023-03-29T13:37:13.048Z,1.30
2023-03-29T13:39:53.612Z,1.10
2023-03-29T13:42:59.801Z,3.10
2023-03-29T13:45:33.016Z,2.83
2023-03-29T13:48:25.059Z,0.90
2023-03-29T13:51:07.958Z,2.70
2023-03-29T13:54:19.024Z,1.20
2023-03-29T13:57:14.572Z,1.50
2023-03-29T14:00:02.295Z,2.10
2023-03-29T14:02:50.377Z,2.20
2023-03-29T14:05:32.234Z,1.60
2023-03-29T14:08:09.834Z,4.23
2023-03-29T14:10:44.025Z,2.17
2023-03-29T14:13:18.792Z,2.33
2023-03-29T14:15:52.388Z,2.10
2023-03-29T14:18:23.966Z,3.50
2023-03-29T14:20:55.140Z,2.83
2023-03-29T14:23:30.609Z,2.03
2023-03-29T14:26:17.036Z,2.10
2023-03-29T14:28:54.002Z,1.47
2023-03-29T14:31:34.378Z,6.60
2023-03-29T14:34:05.994Z,12.50
2023-03-29T14:36:34.722Z,8.50
2023-03-29T14:39:11.550Z,9.03
2023-03-29T14:41:40.174Z,3.10
2023-03-29T14:44:08.993Z,1.97
2023-03-29T14:46:36.926Z,1.47
2023-03-29T14:49:06.261Z,1.57
2023-03-29T14:51:34.419Z,1.70
2023-03-29T14:54:04.687Z,1.50
2023-03-29T14:56:33.596Z,1.80
2023-03-29T14:59:03.970Z,1.37
2023-03-29T15:01:32.344Z,1.30
2023-03-29T15:04:08.033Z,1.70
2023-03-29T15:06:42.510Z,1.50
2023-03-29T15:09:29.242Z,7.03
2023-03-29T15:12:17.762Z,2.60
2023-03-29T15:14:47.458Z,2.17
2023-03-29T15:17:50.249Z,3.73
2023-03-29T15:20:39.098Z,2.97
2023-03-29T15:23:23.458Z,1.60
2023-03-29T15:26:07.472Z,1.70
2023-03-29T15:28:48.914Z,1.80
2023-03-29T15:31:20.849Z,3.17
2023-03-29T15:33:48.447Z,1.73
2023-03-29T15:36:16.663Z,2.60
2023-03-29T15:38:45.495Z,2.63
2023-03-29T15:41:15.462Z,2.40
2023-03-29T15:43:44.263Z,3.40
2023-03-29T15:46:16.635Z,3.60
2023-03-29T15:48:44.384Z,2.90
2023-03-29T15:51:13.054Z,2.30
2023-03-29T15:53:42.193Z,3.70
2023-03-29T15:56:15.801Z,8.40
2023-03-29T15:58:43.987Z,11.10
2023-03-29T16:01:37.305Z,9.93
2023-03-29T16:04:17.670Z,5.97
2023-03-29T16:06:48.882Z,5.50
2023-03-29T16:09:17.634Z,6.53
2023-03-29T16:11:46.490Z,4.23
2023-03-29T16:14:31.778Z,3.67
2023-03-29T16:17:02.902Z,6.90
2023-03-29T16:19:32.137Z,22.13
2023-03-29T16:22:02.354Z,10.83
2023-03-29T16:24:32.328Z,17.43
2023-03-29T16:27:03.283Z,18.53
2023-03-29T16:29:31.252Z,9.07
2023-03-29T16:31:59.283Z,8.83
2023-03-29T16:34:26.876Z,9.43
2023-03-29T16:36:54.471Z,3.37
2023-03-29T16:39:22.924Z,3.23
2023-03-29T16:41:51.318Z,5.83
2023-03-29T16:44:24.758Z,6.77
2023-03-29T16:46:57.805Z,4.23
2023-03-29T16:49:25.434Z,3.97
2023-03-29T16:51:52.918Z,4.70
2023-03-29T16:54:40.402Z,5.87
2023-03-29T16:57:10.370Z,7.73
2023-03-29T16:59:38.030Z,7.00
2023-03-29T17:02:05.493Z,5.23
2023-03-29T17:04:33.693Z,4.17
2023-03-29T17:07:01.634Z,6.10
2023-03-29T17:09:30.008Z,14.80
2023-03-29T17:11:57.568Z,15.63
2023-03-29T17:14:26.368Z,15.87
2023-03-29T17:16:54.706Z,29.47
2023-03-29T17:19:22.256Z,35.83
2023-03-29T17:21:49.743Z,32.60
2023-03-29T17:24:17.335Z,15.80
2023-03-29T17:26:45.982Z,15.10
2023-03-29T17:29:13.504Z,17.67
2023-03-29T17:31:47.712Z,19.23
2023-03-29T17:34:17.373Z,28.53
2023-03-29T17:36:46.469Z,32.07
2023-03-29T17:39:15.342Z,29.40
2023-03-29T17:41:45.466Z,21.77
2023-03-29T17:44:13.024Z,15.63
2023-03-29T17:46:40.749Z,12.57
2023-03-29T17:49:08.272Z,16.17
2023-03-29T17:51:36.288Z,10.63
2023-03-29T17:54:04.030Z,8.17
2023-03-29T17:56:32.962Z,6.00
2023-03-29T17:59:00.996Z,5.00
2023-03-29T18:01:28.556Z,5.97
2023-03-29T18:03:57.378Z,5.80
2023-03-29T18:06:31.212Z,5.27
2023-03-29T18:09:01.591Z,5.57
2023-03-29T18:11:29.516Z,5.77
2023-03-29T18:14:01.294Z,6.20
2023-03-29T18:16:29.674Z,5.00
2023-03-29T18:18:57.243Z,5.33
2023-03-29T18:21:26.150Z,6.37
2023-03-29T18:23:57.000Z,7.33
2023-03-29T18:26:26.700Z,8.07
2023-03-29T18:28:54.399Z,6.87
2023-03-29T18:31:22.031Z,7.20
2023-03-29T18:33:50.216Z,8.63
2023-03-29T18:36:17.735Z,8.17
2023-03-29T18:38:46.151Z,6.63
2023-03-29T18:41:14.830Z,7.83
2023-03-29T18:43:43.274Z,7.00
2023-03-29T18:46:10.875Z,6.10
2023-03-29T18:48:42.672Z,7.37
2023-03-29T18:51:14.986Z,5.43
2023-03-29T18:53:44.478Z,3.50
2023-03-29T18:56:15.248Z,2.70
2023-03-29T18:58:43.021Z,28.50
2023-03-29T19:01:11.288Z,9.77
2023-03-29T19:03:39.108Z,3.77
2023-03-29T19:06:08.233Z,3.67
2023-03-29T19:08:38.745Z,4.33
2023-03-29T19:11:09.931Z,5.03
2023-03-29T19:13:37.719Z,3.73
2023-03-29T19:16:06.390Z,3.83
2023-03-29T19:18:34.723Z,3.77
2023-03-29T19:21:03.551Z,4.10
2023-03-29T19:23:31.516Z,4.70
2023-03-29T19:26:02.571Z,4.67
2023-03-29T19:28:31.202Z,6.90
2023-03-29T19:31:01.083Z,6.10
2023-03-29T19:33:29.529Z,6.93
2023-03-29T19:35:57.088Z,6.83
2023-03-29T19:38:24.768Z,6.97
2023-03-29T19:40:54.246Z,6.00
2023-03-29T19:43:21.952Z,6.37
2023-03-29T19:45:53.675Z,6.50
2023-03-29T19:48:22.995Z,6.10
2023-03-29T19:50:52.028Z,5.67
2023-03-29T19:53:22.152Z,5.13
2023-03-29T19:55:54.970Z,23.20
2023-03-29T19:58:22.543Z,10.40
2023-03-29T20:00:53.605Z,6.77
2023-03-29T20:03:21.848Z,6.33
2023-03-29T20:05:49.571Z,4.40
2023-03-29T20:08:17.095Z,4.00
2023-03-29T20:10:44.593Z,4.10
2023-03-29T20:13:12.026Z,5.87
2023-03-29T20:15:39.845Z,5.20
2023-03-29T20:18:08.052Z,3.87
2023-03-29T20:20:38.821Z,5.33
2023-03-29T20:23:08.137Z,4.77
2023-03-29T20:25:40.848Z,4.70
2023-03-29T20:28:08.588Z,5.00
2023-03-29T20:30:37.736Z,4.40
2023-03-29T20:33:05.720Z,4.43
2023-03-29T20:35:34.508Z,5.37
2023-03-29T20:38:02.612Z,7.07
2023-03-29T20:40:34.324Z,7.57
2023-03-29T20:43:02.132Z,7.03
2023-03-29T20:45:33.211Z,6.80
2023-03-29T20:48:08.416Z,8.23
2023-03-29T20:50:40.291Z,7.97
2023-03-29T20:53:08.861Z,10.20
2023-03-29T20:55:39.435Z,9.67
2023-03-29T20:58:07.909Z,10.57
2023-03-29T21:00:35.795Z,11.67
2023-03-29T21:03:04.030Z,9.67
2023-03-29T21:05:33.774Z,8.63
2023-03-29T21:08:02.826Z,8.60
2023-03-29T21:10:30.952Z,8.57
2023-03-29T21:13:00.317Z,8.37
2023-03-29T21:15:30.805Z,6.93
2023-03-29T21:17:58.929Z,6.93
2023-03-29T21:20:27.595Z,7.20
2023-03-29T21:22:55.174Z,5.80
2023-03-29T21:25:22.875Z,5.30
2023-03-29T21:27:50.385Z,12.70
2023-03-29T21:30:17.891Z,6.97
2023-03-29T21:32:45.392Z,5.83
2023-03-29T21:35:13.189Z,4.77
2023-03-29T21:37:40.690Z,4.70
2023-03-29T21:40:10.699Z,6.90
2023-03-29T21:42:38.641Z,7.93
2023-03-29T21:45:06.898Z,8.53
2023-03-29T21:47:34.408Z,9.50
2023-03-29T21:50:01.987Z,8.87
2023-03-29T21:52:29.628Z,8.77
2023-03-29T21:54:57.167Z,7.07
2023-03-29T21:57:24.713Z,8.90
2023-03-29T21:59:52.184Z,8.40
2023-03-29T22:02:19.695Z,7.00
2023-03-29T22:04:47.281Z,13.93
2023-03-29T22:07:14.834Z,79.53
2023-03-29T22:09:42.664Z,25.57
2023-03-29T22:12:10.737Z,20.97
2023-03-29T22:14:38.262Z,16.43
2023-03-29T22:17:06.991Z,24.27
2023-03-29T22:19:39.745Z,21.43
2023-03-29T22:22:13.996Z,17.50
2023-03-29T22:24:42.510Z,9.73
2023-03-29T22:27:11.759Z,7.33
2023-03-29T22:29:39.494Z,7.63
2023-03-29T22:32:07.023Z,7.60
2023-03-29T22:34:34.953Z,7.90
2023-03-29T22:37:02.423Z,8.60
2023-03-29T22:39:29.958Z,6.77
2023-03-29T22:41:57.555Z,7.17
2023-03-29T22:44:25.026Z,7.87
2023-03-29T22:46:52.626Z,7.07
2023-03-29T22:49:20.358Z,7.63
2023-03-29T22:51:47.827Z,6.03
2023-03-29T22:54:15.311Z,5.67
2023-03-29T22:56:42.848Z,4.53
2023-03-29T22:59:10.563Z,5.20
2023-03-29T23:01:38.169Z,6.03
2023-03-29T23:04:06.337Z,6.23
2023-03-29T23:06:33.983Z,7.00
2023-03-29T23:09:01.697Z,9.20
2023-03-29T23:11:29.187Z,10.10
2023-03-29T23:13:56.641Z,8.87
2023-03-29T23:16:24.548Z,9.43
2023-03-29T23:18:52.085Z,9.20
2023-03-29T23:21:19.529Z,11.27
2023-03-29T23:23:47.181Z,12.47
2023-03-29T23:26:14.840Z,10.50
2023-03-29T23:28:42.503Z,12.33
2023-03-29T23:31:18.534Z,11.00
2023-03-29T23:33:49.488Z,18.83
2023-03-29T23:36:19.528Z,14.30
2023-03-29T23:38:48.779Z,12.67
2023-03-29T23:41:17.772Z,13.00
2023-03-29T23:43:47.453Z,14.43
2023-03-29T23:46:18.980Z,14.70
2023-03-29T23:48:51.464Z,14.23
2023-03-29T23:51:23.075Z,10.37
2023-03-29T23:53:51.444Z,9.43
2023-03-29T23:56:18.923Z,9.00
2023-03-29T23:58:46.744Z,9.20
